Time;durP1;ratioP1;P1;durP2;ratioP2;P2;SDS_P1;SDS_P2;PMS_P1;PMS_P2;Temp;Humidity;BMP_temperature;BMP_pressure;BME280_temperature;BME280_humidity;BME280_pressure;Samples;Min_cycle;Max_cycle;Signal;HPM_P1;HPM_P2
2022/06/08 00:00:44;;;;;;;22.15;7.63;;;25.80;91.10;;;;;;4995162;28;20026;-78
2022/06/08 00:03:18;;;;;;;22.50;6.70;;;25.70;92.00;;;;;;4995039;28;20033;-77
2022/06/08 00:05:44;;;;;;;21.95;6.43;;;25.70;91.30;;;;;;4996097;28;20535;-77
2022/06/08 00:08:10;;;;;;;25.73;6.68;;;25.70;91.60;;;;;;4996556;28;20050;-76
2022/06/08 00:10:36;;;;;;;22.08;6.78;;;25.60;91.60;;;;;;4995282;28;20109;-76
2022/06/08 00:13:03;;;;;;;31.20;7.93;;;25.60;91.60;;;;;;4994768;28;20030;-77
2022/06/08 00:15:28;;;;;;;26.52;7.30;;;25.60;91.90;;;;;;4994669;28;20045;-76
2022/06/08 00:17:54;;;;;;;23.70;7.03;;;25.60;91.90;;;;;;4994444;28;20472;-74
2022/06/08 00:20:20;;;;;;;30.35;7.20;;;25.50;91.90;;;;;;4994177;28;20479;-75
2022/06/08 00:22:46;;;;;;;26.25;7.32;;;25.50;92.00;;;;;;4994472;28;20433;-73
2022/06/08 00:25:13;;;;;;;26.67;7.93;;;25.50;92.10;;;;;;4994260;28;20109;-74
2022/06/08 00:27:39;;;;;;;20.45;7.68;;;25.50;92.00;;;;;;4994294;28;20487;-77
2022/06/08 00:30:07;;;;;;;23.77;7.07;;;25.50;92.30;;;;;;4994271;28;20034;-75
2022/06/08 00:32:33;;;;;;;22.50;7.57;;;25.50;92.20;;;;;;4994344;28;20058;-77
2022/06/08 00:35:00;;;;;;;22.70;7.30;;;25.50;92.10;;;;;;4994373;28;20061;-76
2022/06/08 00:37:27;;;;;;;23.70;7.60;;;25.50;92.30;;;;;;4994317;28;20491;-77
2022/06/08 00:39:53;;;;;;;26.00;7.95;;;25.50;92.10;;;;;;4993084;28;20042;-76
2022/06/08 00:42:19;;;;;;;20.35;6.68;;;25.40;92.30;;;;;;4994679;28;20394;-76
2022/06/08 00:44:54;;;;;;;22.10;7.65;;;25.40;92.50;;;;;;4994578;28;20061;-76
2022/06/08 00:47:25;;;;;;;23.48;8.45;;;25.30;92.80;;;;;;4994260;28;20041;-76
2022/06/08 00:49:57;;;;;;;20.17;7.43;;;25.30;93.00;;;;;;4993870;28;20030;-77
2022/06/08 00:52:24;;;;;;;27.67;7.35;;;25.10;93.10;;;;;;4994253;28;20035;-78
2022/06/08 00:54:56;;;;;;;25.90;7.82;;;25.10;93.40;;;;;;4993877;28;20096;-75
2022/06/08 00:57:36;;;;;;;27.35;7.20;;;25.10;93.70;;;;;;4994338;28;20019;-78
2022/06/08 01:00:17;;;;;;;26.10;7.95;;;25.10;93.60;;;;;;4993822;28;20034;-78
2022/06/08 01:02:43;;;;;;;22.60;6.95;;;25.10;93.90;;;;;;4993449;28;20493;-75
2022/06/08 01:05:16;;;;;;;23.77;7.47;;;25.10;93.70;;;;;;4994135;28;20042;-76
2022/06/08 01:07:43;;;;;;;24.83;7.32;;;25.10;93.90;;;;;;4994502;28;20022;-77
2022/06/08 01:10:18;;;;;;;19.15;7.32;;;25.10;94.00;;;;;;4994111;28;20025;-76
2022/06/08 01:12:44;;;;;;;24.20;7.55;;;25.10;94.10;;;;;;4994452;28;20030;-75
2022/06/08 01:15:14;;;;;;;24.15;7.93;;;25.10;94.30;;;;;;4993941;28;20038;-76
2022/06/08 01:17:39;;;;;;;21.63;8.00;;;25.10;94.30;;;;;;4992804;28;20113;-77
2022/06/08 01:20:06;;;;;;;19.02;7.03;;;25.10;94.60;;;;;;4994420;28;20086;-78
2022/06/08 01:22:31;;;;;;;22.63;8.13;;;25.00;94.60;;;;;;4994377;28;20379;-75
2022/06/08 01:24:57;;;;;;;24.27;7.30;;;25.00;94.70;;;;;;4994071;28;20026;-77
2022/06/08 01:27:52;;;;;;;25.67;8.23;;;25.00;94.80;;;;;;4994104;28;20077;-76
2022/06/08 01:30:18;;;;;;;19.75;7.30;;;25.10;94.80;;;;;;4985404;28;20038;-75
2022/06/08 01:33:09;;;;;;;20.00;8.40;;;25.10;94.70;;;;;;4994409;28;20042;-75
2022/06/08 01:35:41;;;;;;;24.80;8.68;;;25.10;94.50;;;;;;4996470;28;20027;-74
2022/06/08 01:38:10;;;;;;;20.42;8.00;;;25.10;94.60;;;;;;5004510;28;20038;-74
2022/06/08 01:41:01;;;;;;;24.38;8.63;;;25.20;94.40;;;;;;5004543;28;20099;-76
2022/06/08 01:43:57;;;;;;;23.27;8.25;;;25.20;94.40;;;;;;5003231;28;20383;-76
2022/06/08 01:46:38;;;;;;;26.23;7.93;;;25.20;94.40;;;;;;4993687;28;20026;-76
2022/06/08 01:49:09;;;;;;;19.50;7.93;;;25.20;94.30;;;;;;4993457;28;20022;-74
2022/06/08 01:52:03;;;;;;;18.85;7.50;;;25.20;94.60;;;;;;4993040;28;20058;-77
2022/06/08 01:54:44;;;;;;;29.27;7.78;;;25.10;94.80;;;;;;4993462;28;20033;-76
2022/06/08 01:57:31;;;;;;;19.70;7.90;;;25.10;94.80;;;;;;4991995;28;20022;-76
2022/06/08 02:00:18;;;;;;;26.13;8.10;;;25.10;94.70;;;;;;4993279;28;20046;-75
2022/06/08 02:02:54;;;;;;;21.30;7.30;;;25.20;94.70;;;;;;4992000;28;20026;-76
2022/06/08 02:05:31;;;;;;;18.17;6.72;;;25.20;94.60;;;;;;4993200;28;20388;-76
2022/06/08 02:08:30;;;;;;;21.10;7.82;;;25.30;94.60;;;;;;4993409;28;20045;-77
2022/06/08 02:11:32;;;;;;;24.27;7.93;;;25.20;94.50;;;;;;4993235;28;20062;-75
2022/06/08 02:14:23;;;;;;;22.23;7.72;;;25.20;94.20;;;;;;4992426;28;20050;-76
2022/06/08 02:16:51;;;;;;;24.83;8.25;;;25.20;94.40;;;;;;4996841;28;20034;-76
2022/06/08 02:19:46;;;;;;;21.40;7.90;;;25.10;94.30;;;;;;4996644;28;20118;-77
2022/06/08 02:22:34;;;;;;;22.95;7.13;;;25.00;94.70;;;;;;4992889;28;20044;-76
2022/06/08 02:25:02;;;;;;;21.88;8.15;;;25.10;94.60;;;;;;4996698;28;20026;-77
2022/06/08 02:27:37;;;;;;;23.65;8.25;;;25.10;94.30;;;;;;4996677;28;20073;-76
2022/06/08 02:30:07;;;;;;;26.58;8.25;;;25.10;94.30;;;;;;4996438;28;20026;-75
2022/06/08 02:35:49;;;;;;;22.60;8.07;;;25.10;94.10;;;;;;4996521;28;20089;-76
2022/06/08 02:38:18;;;;;;;24.20;8.73;;;25.10;94.10;;;;;;4995923;28;20041;-76
2022/06/08 02:40:50;;;;;;;23.95;7.72;;;25.00;94.10;;;;;;4996622;28;20022;-76
2022/06/08 02:44:03;;;;;;;23.08;8.05;;;25.00;94.20;;;;;;4996286;28;20038;-76
2022/06/08 02:46:49;;;;;;;25.23;8.25;;;25.00;94.20;;;;;;4996146;28;20399;-77
2022/06/08 02:49:15;;;;;;;18.00;7.00;;;24.90;93.90;;;;;;4996218;28;20030;-75
2022/06/08 02:51:46;;;;;;;20.45;8.05;;;24.80;93.50;;;;;;4995987;28;20185;-76
2022/06/08 02:54:33;;;;;;;20.83;8.52;;;24.70;93.20;;;;;;4996244;28;20419;-76
2022/06/08 02:57:04;;;;;;;20.98;8.02;;;24.70;92.90;;;;;;4996074;28;20037;-74
2022/06/08 02:59:36;;;;;;;19.08;7.30;;;24.60;92.80;;;;;;4995935;28;20125;-75
2022/06/08 03:02:11;;;;;;;20.42;7.18;;;24.50;92.50;;;;;;4995985;28;20026;-78
2022/06/08 03:05:08;;;;;;;18.42;6.50;;;24.50;92.20;;;;;;4996063;28;20055;-77
2022/06/08 03:07:40;;;;;;;16.98;6.65;;;24.40;91.70;;;;;;4981513;28;20105;-74
2022/06/08 03:10:10;;;;;;;18.58;6.45;;;24.40;90.90;;;;;;4995793;28;20065;-75
2022/06/08 03:12:42;;;;;;;17.02;5.70;;;24.30;90.10;;;;;;4995757;28;20049;-75
2022/06/08 03:15:09;;;;;;;15.60;5.63;;;24.20;89.10;;;;;;4995567;28;20033;-75
2022/06/08 03:17:37;;;;;;;23.02;6.10;;;24.30;88.30;;;;;;4995430;28;20026;-75
2022/06/08 03:20:06;;;;;;;13.48;5.20;;;24.20;87.20;;;;;;4995364;28;20034;-75
2022/06/08 03:22:32;;;;;;;15.38;5.32;;;24.20;86.70;;;;;;4996102;28;20029;-73
2022/06/08 03:24:58;;;;;;;17.63;5.50;;;24.00;85.10;;;;;;4995082;28;20391;-77
2022/06/08 03:27:25;;;;;;;17.42;5.57;;;24.00;84.60;;;;;;4994006;28;20026;-74
2022/06/08 03:29:51;;;;;;;12.57;5.40;;;24.10;83.80;;;;;;4995126;28;20109;-74
2022/06/08 03:32:18;;;;;;;15.82;5.07;;;24.10;82.80;;;;;;4995213;28;20077;-75
2022/06/08 03:34:43;;;;;;;15.45;5.20;;;24.10;81.80;;;;;;4995194;28;20563;-74
2022/06/08 03:37:09;;;;;;;15.20;5.72;;;24.10;81.50;;;;;;4994967;28;20053;-75
2022/06/08 03:39:35;;;;;;;15.27;5.38;;;24.20;81.00;;;;;;4994667;28;20038;-74
2022/06/08 03:42:01;;;;;;;18.63;5.15;;;24.10;80.10;;;;;;4993701;28;20022;-75
2022/06/08 03:44:27;;;;;;;17.83;5.43;;;24.00;80.10;;;;;;4994555;28;20073;-75
2022/06/08 03:47:04;;;;;;;16.83;5.35;;;24.00;79.80;;;;;;4993791;28;20026;-76
2022/06/08 03:49:32;;;;;;;14.35;4.75;;;23.90;79.00;;;;;;4994700;28;20415;-75
2022/06/08 03:52:00;;;;;;;17.42;4.72;;;23.90;78.90;;;;;;4994627;28;20113;-75
2022/06/08 03:54:31;;;;;;;10.13;4.43;;;23.90;77.80;;;;;;4993504;28;20027;-73
2022/06/08 03:57:03;;;;;;;12.07;4.95;;;24.00;77.30;;;;;;4994932;28;20442;-75
2022/06/08 03:59:31;;;;;;;11.98;5.03;;;24.00;77.00;;;;;;4994673;28;20050;-74
2022/06/08 04:01:56;;;;;;;9.55;3.88;;;23.90;76.20;;;;;;4994565;28;20087;-76
2022/06/08 04:04:22;;;;;;;10.02;3.90;;;23.90;75.50;;;;;;4994516;28;20105;-75
2022/06/08 04:06:49;;;;;;;18.40;4.72;;;23.80;75.40;;;;;;4994884;28;20109;-74
2022/06/08 04:09:16;;;;;;;10.25;4.07;;;23.80;75.40;;;;;;4994666;28;20026;-77
2022/06/08 04:11:41;;;;;;;16.02;4.40;;;23.80;75.60;;;;;;4994598;28;20026;-75
2022/06/08 04:14:07;;;;;;;15.85;4.15;;;23.80;75.50;;;;;;4994723;28;20038;-75
2022/06/08 04:16:33;;;;;;;22.67;4.72;;;23.80;75.40;;;;;;4994642;28;20042;-77
2022/06/08 04:19:02;;;;;;;12.05;4.90;;;23.90;75.10;;;;;;4994501;28;20034;-76
2022/06/08 04:21:28;;;;;;;16.00;4.78;;;23.90;74.90;;;;;;4994390;28;20034;-77
2022/06/08 04:23:54;;;;;;;10.90;4.68;;;24.00;74.70;;;;;;4994344;28;20023;-75
2022/06/08 04:26:21;;;;;;;18.60;4.95;;;23.90;74.10;;;;;;4994269;28;20030;-76
2022/06/08 04:28:47;;;;;;;18.02;4.88;;;23.90;73.90;;;;;;4994009;28;20519;-78
2022/06/08 04:31:14;;;;;;;13.25;4.47;;;23.80;74.10;;;;;;4994037;28;20031;-78
2022/06/08 04:33:40;;;;;;;14.38;4.60;;;23.80;74.10;;;;;;4994059;28;20022;-76
2022/06/08 04:36:06;;;;;;;10.82;3.85;;;23.80;73.50;;;;;;4993881;28;20022;-75
2022/06/08 04:38:33;;;;;;;15.35;4.57;;;23.80;73.30;;;;;;4993510;28;20037;-77
2022/06/08 04:41:01;;;;;;;16.40;4.55;;;23.80;73.60;;;;;;4994044;28;20037;-77
2022/06/08 04:43:26;;;;;;;16.60;6.55;;;23.80;73.50;;;;;;4994114;28;20080;-78
2022/06/08 04:45:52;;;;;;;16.45;4.75;;;23.80;73.70;;;;;;4994288;28;20026;-75
2022/06/08 04:48:19;;;;;;;11.40;4.47;;;23.70;74.00;;;;;;4994071;28;20077;-77
2022/06/08 04:50:45;;;;;;;15.05;4.85;;;23.70;74.10;;;;;;4993744;28;20054;-76
2022/06/08 04:53:11;;;;;;;19.83;4.97;;;23.70;74.50;;;;;;4994214;28;20026;-76
2022/06/08 04:55:37;;;;;;;19.55;5.60;;;23.70;75.10;;;;;;4994607;28;20038;-75
2022/06/08 04:58:03;;;;;;;15.15;5.18;;;23.70;75.70;;;;;;4993853;28;20023;-74
2022/06/08 05:00:30;;;;;;;14.07;5.05;;;23.80;76.00;;;;;;4994010;28;20046;-77
2022/06/08 05:02:55;;;;;;;15.30;5.15;;;23.70;75.90;;;;;;4994151;28;20022;-75
2022/06/08 05:05:30;;;;;;;16.75;5.15;;;23.80;76.40;;;;;;4994018;28;20444;-80
2022/06/08 05:07:56;;;;;;;15.73;5.38;;;23.80;76.80;;;;;;4994395;28;20438;-78
2022/06/08 05:10:25;;;;;;;17.98;5.07;;;23.90;76.10;;;;;;4994255;28;20053;-79
2022/06/08 05:12:51;;;;;;;20.30;5.07;;;24.00;76.20;;;;;;4993064;28;20506;-80
2022/06/08 05:15:20;;;;;;;14.48;5.22;;;24.20;75.70;;;;;;4992761;28;20031;-77
2022/06/08 05:17:46;;;;;;;12.45;4.85;;;24.50;75.20;;;;;;4994173;28;20038;-76
2022/06/08 05:20:13;;;;;;;16.67;5.57;;;24.80;74.60;;;;;;4992069;22;20059;-80
2022/06/08 05:22:39;;;;;;;14.45;5.32;;;25.10;74.00;;;;;;4974474;28;20027;-77
2022/06/08 05:25:09;;;;;;;17.38;5.20;;;25.50;72.40;;;;;;4974781;28;20034;-78
2022/06/08 05:27:38;;;;;;;17.08;5.65;;;25.90;71.20;;;;;;4990755;28;20045;-76
2022/06/08 05:30:08;;;;;;;18.48;5.38;;;26.30;69.30;;;;;;4973184;28;20026;-78
2022/06/08 05:32:34;;;;;;;17.33;5.55;;;26.70;68.70;;;;;;4974869;28;20037;-80
2022/06/08 05:35:00;;;;;;;18.17;5.55;;;27.10;68.10;;;;;;4975699;28;20022;-77
2022/06/08 05:37:26;;;;;;;16.60;5.50;;;27.50;67.10;;;;;;4975608;28;20376;-78
2022/06/08 05:39:51;;;;;;;13.90;5.65;;;27.80;66.00;;;;;;4975870;28;20039;-80
2022/06/08 05:42:17;;;;;;;18.77;5.22;;;28.20;65.10;;;;;;4977230;28;20031;-78
2022/06/08 05:44:43;;;;;;;17.63;5.88;;;28.50;64.30;;;;;;4978385;28;20093;-78
2022/06/08 05:47:09;;;;;;;28.00;6.60;;;28.70;63.40;;;;;;4977918;28;20079;-78
2022/06/08 05:49:34;;;;;;;16.05;5.63;;;28.90;62.60;;;;;;4977101;28;20156;-79
2022/06/08 05:52:01;;;;;;;19.52;6.82;;;29.10;62.20;;;;;;4978326;28;20031;-80
2022/06/08 05:54:28;;;;;;;24.83;6.03;;;29.40;61.30;;;;;;4977883;28;20089;-79
2022/06/08 05:56:54;;;;;;;20.65;5.90;;;29.60;61.00;;;;;;4977765;28;20106;-78
2022/06/08 05:59:20;;;;;;;16.58;5.28;;;29.90;60.10;;;;;;4978360;28;20144;-78
2022/06/08 06:01:45;;;;;;;17.13;5.13;;;30.20;59.30;;;;;;4978446;28;20027;-78
2022/06/08 06:04:12;;;;;;;15.30;5.22;;;30.20;59.00;;;;;;4975962;28;20484;-78
2022/06/08 06:06:43;;;;;;;18.33;5.38;;;30.30;58.40;;;;;;4977254;28;20023;-79
2022/06/08 06:09:10;;;;;;;15.00;5.82;;;30.40;57.90;;;;;;4977188;28;20019;-78
2022/06/08 06:11:37;;;;;;;14.82;5.57;;;30.50;57.70;;;;;;4977077;28;20034;-80
2022/06/08 06:14:04;;;;;;;16.80;5.45;;;30.60;56.90;;;;;;4977033;28;20047;-77
2022/06/08 06:16:30;;;;;;;17.63;5.03;;;30.70;56.70;;;;;;4976825;28;20022;-79
2022/06/08 06:18:56;;;;;;;20.55;4.93;;;30.80;56.60;;;;;;4970421;28;20035;-79
2022/06/08 06:21:25;;;;;;;17.70;5.43;;;31.10;56.20;;;;;;4965997;28;20156;-80
2022/06/08 06:23:59;;;;;;;14.35;5.28;;;31.10;55.00;;;;;;4975685;28;20095;-79
2022/06/08 06:26:25;;;;;;;13.05;5.07;;;31.10;56.00;;;;;;4976746;28;20034;-79
2022/06/08 06:28:51;;;;;;;11.23;4.28;;;31.10;55.20;;;;;;4976748;28;20101;-78
2022/06/08 06:31:24;;;;;;;21.50;6.10;;;31.10;55.10;;;;;;4976501;28;20480;-78
2022/06/08 06:33:50;;;;;;;20.70;5.00;;;31.20;53.20;;;;;;4977156;28;20105;-77
2022/06/08 06:36:16;;;;;;;37.75;6.45;;;31.30;53.70;;;;;;4976396;28;20101;-79
2022/06/08 06:38:41;;;;;;;22.98;5.22;;;31.50;53.10;;;;;;4976504;28;20035;-78
2022/06/08 06:41:07;;;;;;;16.10;4.60;;;31.60;52.60;;;;;;4976779;28;20027;-79
2022/06/08 06:43:35;;;;;;;13.88;4.68;;;31.50;52.70;;;;;;4976099;28;20117;-78
2022/06/08 06:46:02;;;;;;;13.02;3.92;;;31.50;52.20;;;;;;4976615;28;20031;-80
2022/06/08 06:48:28;;;;;;;15.80;4.85;;;31.50;51.90;;;;;;4976484;28;20361;-79
2022/06/08 06:50:54;;;;;;;11.98;4.65;;;31.60;51.30;;;;;;4977081;28;20023;-80
2022/06/08 06:53:20;;;;;;;14.02;4.55;;;31.60;51.30;;;;;;4979385;28;20054;-81
2022/06/08 06:55:45;;;;;;;15.48;6.20;;;31.70;51.10;;;;;;4979054;28;20026;-80
2022/06/08 06:58:11;;;;;;;21.02;5.82;;;31.80;51.10;;;;;;4977440;28;20388;-83
2022/06/08 07:00:37;;;;;;;11.82;5.18;;;31.70;51.30;;;;;;4976565;28;20097;-82
2022/06/08 07:03:04;;;;;;;16.40;5.60;;;31.50;51.40;;;;;;4976522;28;20022;-75
2022/06/08 07:05:34;;;;;;;15.32;6.05;;;31.50;51.40;;;;;;4976422;28;20110;-76
2022/06/08 07:07:59;;;;;;;17.15;5.57;;;31.30;51.70;;;;;;4976019;28;20031;-74
2022/06/08 07:10:25;;;;;;;15.40;4.65;;;31.30;51.50;;;;;;4976077;28;20066;-74
2022/06/08 07:12:51;;;;;;;18.42;5.32;;;31.40;52.00;;;;;;4976946;28;20110;-74
2022/06/08 07:15:19;;;;;;;17.17;5.05;;;31.40;51.30;;;;;;4977215;28;20027;-73
2022/06/08 07:17:45;;;;;;;17.42;5.22;;;31.40;51.30;;;;;;4976026;28;20480;-74
2022/06/08 07:20:13;;;;;;;16.15;5.03;;;31.30;49.90;;;;;;4975443;28;20051;-77
2022/06/08 07:22:39;;;;;;;18.67;5.32;;;31.50;51.10;;;;;;4975557;28;20026;-73
2022/06/08 07:25:08;;;;;;;18.40;4.85;;;31.70;50.80;;;;;;4975805;28;20038;-74
2022/06/08 07:27:35;;;;;;;15.13;4.55;;;31.80;50.50;;;;;;4975876;28;20038;-74
2022/06/08 07:30:02;;;;;;;14.70;4.38;;;31.90;51.00;;;;;;4974494;28;20030;-78
2022/06/08 07:32:28;;;;;;;12.50;4.25;;;32.00;50.10;;;;;;4975716;28;20023;-74
2022/06/08 07:34:54;;;;;;;14.77;4.82;;;32.00;49.60;;;;;;4975995;28;20036;-74
2022/06/08 07:37:19;;;;;;;15.63;4.50;;;32.00;49.30;;;;;;4975456;28;20030;-74
2022/06/08 07:39:45;;;;;;;12.05;4.82;;;32.00;49.20;;;;;;4975232;28;20484;-73
2022/06/08 07:42:11;;;;;;;14.40;4.65;;;32.00;50.90;;;;;;4975281;28;20031;-75
2022/06/08 07:44:36;;;;;;;13.10;4.43;;;32.00;49.00;;;;;;4975394;28;20031;-75
2022/06/08 07:47:02;;;;;;;16.58;4.45;;;31.90;48.70;;;;;;4975158;28;20050;-75
2022/06/08 07:49:37;;;;;;;12.15;3.80;;;31.80;48.30;;;;;;4975179;28;20030;-76
2022/06/08 07:52:17;;;;;;;13.43;4.95;;;31.60;47.60;;;;;;4975162;28;20027;-73
2022/06/08 07:54:44;;;;;;;14.85;4.00;;;31.60;47.80;;;;;;4975074;28;20039;-73
2022/06/08 07:57:17;;;;;;;14.85;4.10;;;31.70;48.40;;;;;;4974821;28;20050;-73
2022/06/08 07:59:43;;;;;;;14.65;4.30;;;31.70;47.90;;;;;;4974776;28;20055;-75
2022/06/08 08:02:10;;;;;;;17.88;4.90;;;31.60;48.30;;;;;;4974605;28;20034;-74
2022/06/08 08:04:36;;;;;;;14.45;4.07;;;31.60;48.30;;;;;;4974621;28;20142;-74
2022/06/08 08:07:02;;;;;;;10.98;3.38;;;31.30;48.50;;;;;;4974812;28;20130;-75
2022/06/08 08:09:28;;;;;;;14.38;4.18;;;31.30;48.30;;;;;;4973270;28;20023;-74
2022/06/08 08:11:54;;;;;;;17.83;4.45;;;31.30;48.10;;;;;;4974639;28;20034;-76
2022/06/08 08:14:22;;;;;;;13.55;3.70;;;31.30;49.10;;;;;;4974347;28;20026;-74
2022/06/08 08:16:48;;;;;;;11.88;3.72;;;31.20;48.00;;;;;;4974517;28;20468;-74
2022/06/08 08:19:19;;;;;;;10.00;2.97;;;31.10;47.90;;;;;;4974159;28;20121;-74
2022/06/08 08:21:47;;;;;;;10.48;3.75;;;31.00;46.70;;;;;;4974485;28;20178;-73
2022/06/08 08:24:13;;;;;;;16.30;3.97;;;30.80;47.90;;;;;;4973042;28;20035;-74
2022/06/08 08:26:39;;;;;;;11.18;3.60;;;30.60;47.20;;;;;;4974416;28;20035;-76
2022/06/08 08:29:05;;;;;;;12.30;3.80;;;30.50;46.90;;;;;;4974253;28;20030;-76
2022/06/08 08:31:32;;;;;;;11.02;3.65;;;30.40;47.70;;;;;;4974586;28;20437;-74
2022/06/08 08:33:59;;;;;;;13.48;3.58;;;30.30;48.50;;;;;;4974609;28;20173;-75
2022/06/08 08:36:24;;;;;;;17.35;3.35;;;30.20;48.20;;;;;;4974238;28;20435;-73
2022/06/08 08:38:50;;;;;;;11.68;3.80;;;30.00;48.40;;;;;;4974351;28;20031;-73
2022/06/08 08:44:36;;;;;;;13.25;3.83;;;30.00;46.90;;;;;;4974309;28;20094;-77
2022/06/08 08:47:24;;;;;;;12.60;4.25;;;30.00;45.90;;;;;;4974028;28;20034;-75
2022/06/08 08:50:02;;;;;;;15.57;3.80;;;30.00;46.50;;;;;;4973940;28;20023;-75
2022/06/08 08:52:51;;;;;;;10.48;2.97;;;30.00;46.80;;;;;;4973963;28;20038;-75
2022/06/08 08:56:03;;;;;;;13.20;3.22;;;30.00;45.70;;;;;;4973926;28;20043;-75
2022/06/08 08:58:35;;;;;;;9.85;2.80;;;29.80;44.40;;;;;;4933505;29;20035;-75
2022/06/08 09:01:14;;;;;;;14.80;3.83;;;29.70;45.30;;;;;;4933277;29;20036;-77
2022/06/08 09:04:26;;;;;;;9.57;2.97;;;29.70;45.90;;;;;;4960318;28;20089;-77
2022/06/08 09:06:53;;;;;;;13.25;2.70;;;29.80;44.40;;;;;;4965291;28;20070;-73
2022/06/08 09:09:31;;;;;;;7.85;2.47;;;29.70;45.10;;;;;;4973561;28;20027;-75
2022/06/08 09:11:57;;;;;;;9.35;3.30;;;29.80;44.80;;;;;;4973793;28;20027;-76
2022/06/08 09:14:26;;;;;;;13.90;3.28;;;29.80;44.90;;;;;;4973755;28;20427;-75
2022/06/08 09:17:19;;;;;;;10.63;2.88;;;29.90;44.50;;;;;;4973937;28;20095;-77
2022/06/08 09:19:50;;;;;;;8.60;2.60;;;29.90;43.70;;;;;;4973442;28;20051;-77
2022/06/08 09:22:21;;;;;;;13.50;3.10;;;29.90;44.60;;;;;;4974300;28;20097;-76
2022/06/08 09:24:54;;;;;;;7.90;2.85;;;29.90;43.10;;;;;;4977772;28;20485;-77
2022/06/08 09:27:26;;;;;;;7.22;2.33;;;30.00;43.60;;;;;;4977660;28;20065;-78
2022/06/08 09:29:55;;;;;;;7.32;2.53;;;29.90;43.40;;;;;;4977441;28;20489;-73
2022/06/08 09:32:39;;;;;;;9.18;2.25;;;29.80;42.80;;;;;;4977734;28;20096;-76
2022/06/08 09:35:28;;;;;;;8.90;2.30;;;29.80;42.00;;;;;;4977935;28;20043;-78
2022/06/08 09:37:58;;;;;;;10.77;2.67;;;29.90;41.70;;;;;;4978373;28;20049;-76
2022/06/08 09:40:37;;;;;;;9.43;2.47;;;30.00;41.70;;;;;;4977685;28;20046;-76
2022/06/08 09:43:28;;;;;;;6.45;2.60;;;30.00;41.90;;;;;;4977572;28;20037;-76
2022/06/08 09:46:03;;;;;;;10.82;3.05;;;30.10;41.40;;;;;;4972847;28;20043;-77
2022/06/08 09:51:31;;;;;;;8.13;2.05;;;30.20;41.20;;;;;;4980323;28;20033;-76
2022/06/08 09:54:31;;;;;;;6.55;2.10;;;30.30;41.40;;;;;;4985674;28;20101;-73
2022/06/08 09:57:08;;;;;;;8.55;2.10;;;30.20;40.90;;;;;;4984038;28;20030;-72
2022/06/08 09:59:55;;;;;;;4.13;1.70;;;30.20;41.10;;;;;;4983494;28;20043;-74
2022/06/08 10:02:38;;;;;;;8.38;2.17;;;30.20;40.50;;;;;;4980113;28;20042;-75
2022/06/08 10:05:43;;;;;;;8.70;2.28;;;30.10;40.80;;;;;;4977579;28;20355;-74
2022/06/08 10:08:22;;;;;;;8.85;2.65;;;30.10;41.10;;;;;;4977619;28;20563;-74
2022/06/08 10:11:34;;;;;;;7.30;2.45;;;30.20;42.10;;;;;;4976649;28;20030;-74
2022/06/08 10:13:54;;;;;;;10.52;3.15;;;30.20;41.20;;;;;;4976665;28;20369;-76
2022/06/08 10:16:23;;;;;;;7.15;2.53;;;30.30;41.10;;;;;;4976747;28;20023;-75
2022/06/08 10:18:57;;;;;;;7.25;2.65;;;30.30;41.60;;;;;;4977212;28;20027;-73
2022/06/08 10:21:32;;;;;;;8.10;2.80;;;30.50;41.00;;;;;;4976588;28;20050;-76
2022/06/08 10:24:23;;;;;;;11.68;3.13;;;30.50;40.50;;;;;;4976967;28;20478;-76
2022/06/08 10:27:02;;;;;;;5.03;2.45;;;30.50;40.30;;;;;;4978471;28;20038;-78
2022/06/08 10:29:41;;;;;;;8.20;4.32;;;30.50;40.20;;;;;;4977711;28;20128;-76
2022/06/08 10:32:29;;;;;;;5.47;2.95;;;30.50;40.40;;;;;;4977848;28;20085;-75
2022/06/08 10:34:55;;;;;;;9.40;2.97;;;30.60;40.10;;;;;;4975744;28;20049;-76
2022/06/08 10:37:35;;;;;;;8.38;2.45;;;30.60;39.90;;;;;;4975005;28;20027;-76
2022/06/08 10:40:06;;;;;;;6.43;2.35;;;30.60;39.70;;;;;;4976439;28;20097;-77
2022/06/08 10:42:40;;;;;;;7.97;2.83;;;30.60;39.80;;;;;;4975859;28;20106;-78
2022/06/08 10:45:24;;;;;;;7.55;2.42;;;30.70;39.70;;;;;;4976407;28;20023;-78
2022/06/08 10:47:57;;;;;;;6.25;2.55;;;30.80;39.50;;;;;;4976259;28;20034;-78
2022/06/08 10:50:39;;;;;;;6.93;2.20;;;30.90;39.00;;;;;;4976372;28;20027;-76
2022/06/08 10:56:23;;;;;;;5.73;2.00;;;31.00;38.70;;;;;;4976223;28;20033;-78
2022/06/08 10:59:07;;;;;;;9.05;2.40;;;31.10;38.50;;;;;;4975986;28;20360;-77
2022/06/08 11:01:54;;;;;;;10.85;2.30;;;31.10;39.50;;;;;;4976117;28;20026;-77
2022/06/08 11:04:32;;;;;;;8.32;2.20;;;31.30;39.20;;;;;;4976378;28;20031;-77
2022/06/08 11:07:07;;;;;;;8.95;2.63;;;31.40;39.30;;;;;;4975745;28;20078;-75
2022/06/08 11:09:32;;;;;;;11.40;2.50;;;31.50;39.10;;;;;;4975892;28;20037;-74
2022/06/08 11:12:10;;;;;;;6.68;2.30;;;31.60;38.40;;;;;;4975574;28;20019;-78
2022/06/08 11:14:48;;;;;;;16.80;3.30;;;31.60;39.40;;;;;;4975654;28;20456;-76
2022/06/08 11:17:29;;;;;;;9.45;3.25;;;31.60;40.60;;;;;;4975391;28;20018;-74
2022/06/08 11:20:16;;;;;;;11.35;2.95;;;31.60;42.90;;;;;;4975550;28;20129;-76
2022/06/08 11:23:23;;;;;;;17.33;3.95;;;31.50;45.90;;;;;;4975808;28;20122;-75
2022/06/08 11:26:07;;;;;;;14.45;2.88;;;31.60;43.90;;;;;;4935047;29;20036;-75
2022/06/08 11:28:42;;;;;;;10.55;3.00;;;31.60;44.00;;;;;;4935344;29;20494;-75
2022/06/08 11:31:30;;;;;;;13.57;2.90;;;31.60;44.10;;;;;;4961565;28;20037;-76
2022/06/08 11:34:06;;;;;;;11.77;2.97;;;31.60;44.20;;;;;;4968258;28;20058;-74
2022/06/08 11:36:50;;;;;;;15.10;2.92;;;31.60;44.00;;;;;;4975376;28;20052;-76
2022/06/08 11:39:46;;;;;;;10.57;2.95;;;31.60;43.10;;;;;;4975578;28;20031;-77
2022/06/08 11:42:27;;;;;;;10.48;2.58;;;31.60;42.80;;;;;;4975468;28;20031;-75
2022/06/08 11:45:18;;;;;;;13.95;3.40;;;31.60;43.30;;;;;;4975405;28;20029;-77
2022/06/08 11:48:04;;;;;;;12.93;2.75;;;31.60;43.50;;;;;;4975128;28;20039;-75
2022/06/08 11:50:45;;;;;;;13.10;3.13;;;31.60;43.70;;;;;;4975083;28;20023;-76
2022/06/08 11:53:32;;;;;;;12.20;3.25;;;31.60;43.50;;;;;;4975245;28;20051;-77
2022/06/08 11:56:19;;;;;;;14.18;3.35;;;31.60;43.90;;;;;;4975331;28;20026;-77
2022/06/08 11:58:48;;;;;;;11.70;3.08;;;31.70;44.50;;;;;;4974699;28;20086;-78
2022/06/08 12:01:26;;;;;;;12.55;3.20;;;31.60;45.10;;;;;;4973537;28;20031;-79
2022/06/08 12:04:00;;;;;;;16.63;4.78;;;31.60;44.80;;;;;;4975142;28;20077;-76
2022/06/08 12:06:46;;;;;;;19.75;5.28;;;31.70;45.50;;;;;;4975140;28;20034;-78
2022/06/08 12:09:26;;;;;;;15.38;5.75;;;31.70;45.30;;;;;;4974728;28;20054;-76
2022/06/08 12:11:57;;;;;;;13.93;5.72;;;31.80;45.50;;;;;;4974991;28;20380;-75
2022/06/08 12:14:35;;;;;;;9.75;5.43;;;31.80;45.20;;;;;;4974809;28;20019;-77
2022/06/08 12:17:22;;;;;;;13.32;5.50;;;31.80;47.00;;;;;;4974791;28;20045;-77
2022/06/08 12:19:57;;;;;;;16.50;5.78;;;31.80;45.10;;;;;;4974227;28;20141;-77
2022/06/08 12:22:30;;;;;;;14.20;4.63;;;31.90;45.70;;;;;;4974580;28;20023;-77
2022/06/08 12:25:21;;;;;;;12.60;4.75;;;31.90;44.60;;;;;;4974729;28;20073;-77
2022/06/08 12:27:55;;;;;;;12.98;4.60;;;31.90;43.80;;;;;;4974773;28;20031;-77
2022/06/08 12:30:31;;;;;;;16.17;4.50;;;31.80;44.20;;;;;;4974507;28;20030;-78
2022/06/08 12:33:04;;;;;;;13.32;4.55;;;31.70;43.90;;;;;;4974375;28;20108;-76
2022/06/08 12:35:33;;;;;;;12.45;3.97;;;31.70;43.90;;;;;;4974657;28;20464;-78
2022/06/08 12:38:08;;;;;;;13.82;3.88;;;31.80;43.70;;;;;;4974247;28;20078;-76
2022/06/08 12:40:34;;;;;;;12.98;3.40;;;31.90;43.50;;;;;;4972755;28;20392;-77
2022/06/08 12:43:10;;;;;;;14.02;3.10;;;32.00;43.00;;;;;;4974311;28;20050;-75
2022/06/08 12:45:42;;;;;;;8.43;2.72;;;32.10;42.80;;;;;;4974126;28;20030;-76
2022/06/08 12:48:20;;;;;;;10.50;3.00;;;32.10;42.80;;;;;;4974303;28;20033;-76
2022/06/08 12:50:46;;;;;;;14.68;3.50;;;32.10;42.20;;;;;;4974038;28;20041;-77
2022/06/08 12:53:12;;;;;;;9.68;3.22;;;32.00;42.60;;;;;;4974032;28;20026;-76
2022/06/08 12:55:40;;;;;;;13.98;3.30;;;32.10;42.50;;;;;;4974066;28;20580;-78
2022/06/08 12:58:09;;;;;;;7.07;2.65;;;32.20;42.20;;;;;;4972737;28;20054;-76
2022/06/08 13:00:38;;;;;;;13.57;2.85;;;32.20;41.70;;;;;;4973866;28;20500;-76
2022/06/08 13:03:19;;;;;;;13.05;2.92;;;32.20;41.40;;;;;;4974432;28;20570;-76
2022/06/08 13:05:44;;;;;;;7.70;2.40;;;32.20;41.20;;;;;;4974290;28;20030;-77
2022/06/08 13:08:20;;;;;;;11.52;2.83;;;32.20;40.70;;;;;;4972603;28;20022;-76
2022/06/08 13:10:48;;;;;;;12.77;2.80;;;32.20;40.50;;;;;;4973888;28;20027;-76
2022/06/08 13:13:20;;;;;;;9.00;2.53;;;32.30;41.20;;;;;;4973764;28;20035;-76
2022/06/08 13:15:47;;;;;;;20.67;2.88;;;32.40;40.70;;;;;;4973702;28;20057;-77
2022/06/08 13:18:20;;;;;;;17.15;2.88;;;32.40;40.50;;;;;;4973739;28;20031;-78